Armony — 5IM517 — position and weather

sailwx.info

Track history (hours):
 
Tides and Currents Weather Stations Pressure Air Temp Water Temp Dewpoint Dewpoint Depression Visibility Wind Speed Wind Dir Waves Ship Positions

Armony

Last reported at 2016-Apr-24 22:09 UTC. Time now 2016-May-24 13:50 UTC.
Position N 40°52' E 028°48'.
Warning: this ship's position is 29 days out of date.

Length 70 m; draft 6.6 m.

Type: Ship. MMSI: 677041700.

Date/timePositionNaut miles runAvg speedWind from/ knotsBaromVisibWave heightAir tempDewpointWater temp
2016-Apr-24 22:09N 40°52' E 028°48'  
2016-Apr-19 02:31N 46°25' E 030°55'8 7.8
2016-Apr-19 01:32N 46°33' E 030°58'16 8.1
2016-Apr-18 23:32N 46°35' E 031°21'11 7.8
2016-Apr-18 22:04N 46°35' E 031°38'4 8.4
2016-Apr-18 21:33N 46°36' E 031°44'8 7.8
2016-Apr-18 20:34N 46°38' E 031°54'7 6.7
2016-Apr-18 19:33N 46°45' E 031°54'7 6.8
2016-Apr-18 18:33N 46°51' E 031°57'1 1.0
2016-Apr-18 17:32N 46°51' E 031°59'0 0.0
2016-Apr-18 16:32N 46°51' E 031°59'0 0.0
2016-Apr-18 15:32N 46°51' E 031°59'0 0.0
2016-Apr-18 14:32N 46°51' E 031°59'0 0.0
2016-Apr-18 13:32N 46°51' E 031°59'0 0.0
2016-Apr-18 12:32N 46°51' E 031°59'0 0.0
2016-Apr-18 11:29N 46°51' E 031°59'0 0.0
2016-Apr-18 10:32N 46°51' E 031°59'0 0.0
2016-Apr-18 09:32N 46°51' E 031°59'0 0.0
2016-Apr-18 08:32N 46°51' E 031°59'0 0.0
2016-Apr-18 07:32N 46°51' E 031°59'0 0.0
2016-Apr-18 06:32N 46°51' E 031°59'0 0.0
2016-Apr-18 05:32N 46°51' E 031°59'0 0.0
2016-Apr-18 04:32N 46°51' E 031°59'0 0.0
2016-Apr-18 03:29N 46°51' E 031°59'0 0.0
2016-Apr-18 02:32N 46°51' E 031°59'0 0.0
2016-Apr-18 01:32N 46°51' E 031°59'0 0.0
2016-Apr-18 00:32N 46°51' E 031°59'0 0.0
2016-Apr-17 23:32N 46°51' E 031°59'0 0.0
2016-Apr-17 22:32N 46°51' E 031°59'0 0.0
2016-Apr-17 21:32N 46°51' E 031°59'0 0.0
2016-Apr-17 20:32N 46°51' E 031°59'0 0.0
2016-Apr-17 19:32N 46°51' E 031°59'0 0.0
2016-Apr-17 18:32N 46°51' E 031°59'0 0.0
2016-Apr-17 17:32N 46°51' E 031°59'0 0.0
2016-Apr-17 16:32N 46°51' E 031°59'0 0.0
2016-Apr-17 15:32N 46°51' E 031°59'0 0.0
2016-Apr-17 14:32N 46°51' E 031°59'0 0.0
2016-Apr-17 13:32N 46°51' E 031°59'0 0.0
2016-Apr-17 12:32N 46°51' E 031°59'0 0.0
2016-Apr-17 11:32N 46°51' E 031°59'0 0.0
2016-Apr-17 10:32N 46°51' E 031°59'0 0.0
2016-Apr-17 09:32N 46°51' E 031°59'0 0.0
2016-Apr-17 08:29N 46°51' E 031°59'0 0.0
2016-Apr-17 07:32N 46°51' E 031°59'0 0.0
2016-Apr-17 06:32N 46°51' E 031°59'0 0.0
2016-Apr-17 05:32N 46°51' E 031°59'0 0.0
2016-Apr-17 04:32N 46°51' E 031°59'0 0.0
2016-Apr-17 03:32N 46°51' E 031°59'0 0.0
2016-Apr-17 02:32N 46°51' E 031°59'0 0.0
2016-Apr-17 01:29N 46°51' E 031°59'0 0.0
2016-Apr-17 00:32N 46°51' E 031°59'0 0.0
2016-Apr-16 23:32N 46°51' E 031°59'0 0.0
2016-Apr-16 22:32N 46°51' E 031°59'0 0.0
2016-Apr-16 21:32N 46°51' E 031°59'0 0.0
2016-Apr-16 20:32N 46°51' E 031°59'0 0.0
2016-Apr-16 19:32N 46°51' E 031°59'0 0.0
2016-Apr-16 18:32N 46°51' E 031°59'0 0.0
2016-Apr-16 17:32N 46°51' E 031°59'0 0.0
2016-Apr-16 16:32N 46°51' E 031°59'0 0.0
2016-Apr-16 15:32N 46°51' E 031°59'0 0.0
2016-Apr-16 14:32N 46°51' E 031°59'0 0.0
2016-Apr-16 13:32N 46°51' E 031°59'0 0.0
2016-Apr-16 12:32N 46°51' E 031°59'0 0.0
2016-Apr-16 11:32N 46°51' E 031°59'0 0.0
2016-Apr-16 10:32N 46°51' E 031°59'0 0.0
2016-Apr-16 09:32N 46°51' E 031°59'0 0.0
2016-Apr-16 08:29N 46°51' E 031°59'0 0.0
2016-Apr-16 07:32N 46°51' E 031°59'0 0.0
2016-Apr-16 06:32N 46°51' E 031°59'0 0.0
2016-Apr-16 05:26N 46°51' E 031°59'0 0.0
2016-Apr-16 04:32N 46°51' E 031°59'0 0.0
2016-Apr-16 03:32N 46°51' E 031°59'0 0.0
2016-Apr-16 02:32N 46°51' E 031°59'0 0.0
2016-Apr-16 01:32N 46°51' E 031°59'0 0.0
2016-Apr-16 00:32N 46°51' E 031°59'0 0.0
2016-Apr-15 23:32N 46°51' E 031°59'0 0.0
2016-Apr-15 22:32N 46°51' E 031°59'0 0.0
2016-Apr-15 21:32N 46°51' E 031°59'0 0.0
2016-Apr-15 20:32N 46°51' E 031°59'0 0.0
2016-Apr-15 19:32N 46°51' E 031°59'0 0.0
2016-Apr-15 18:32N 46°51' E 031°59'0 0.0
2016-Apr-15 17:32N 46°51' E 031°59'0 0.0
2016-Apr-15 16:32N 46°51' E 031°59'0 0.0
2016-Apr-15 15:32N 46°51' E 031°59'0 0.0
2016-Apr-15 14:32N 46°51' E 031°59'0 0.0
2016-Apr-15 13:32N 46°51' E 031°59'0 0.0
2016-Apr-15 12:32N 46°51' E 031°59'0 0.0
2016-Apr-15 11:32N 46°51' E 031°59'0 0.0
2016-Apr-15 10:32N 46°51' E 031°59'0 0.0
2016-Apr-15 09:32N 46°51' E 031°59'0 0.0
2016-Apr-15 08:32N 46°51' E 031°59'0 0.0
2016-Apr-15 07:32N 46°51' E 031°59'0 0.0
2016-Apr-15 06:32N 46°51' E 031°59'0 0.0
2016-Apr-15 05:32N 46°51' E 031°59'0 0.0
2016-Apr-15 04:32N 46°51' E 031°59'0 0.0
2016-Apr-15 03:29N 46°51' E 031°59'0 0.0
2016-Apr-15 02:29N 46°51' E 031°59'0 0.0
2016-Apr-15 01:29N 46°51' E 031°59'0 0.0
2016-Apr-15 00:32N 46°51' E 031°59'0 0.0
2016-Apr-14 23:32N 46°51' E 031°59'0 0.0
2016-Apr-14 22:29N 46°51' E 031°59'  
Track history (hours):
 
Tides and Currents Weather Stations Pressure Air Temp Water Temp Dewpoint Dewpoint Depression Visibility Wind Speed Wind Dir Waves Ship Positions

Armony

Last reported at 2016-Apr-24 22:09 UTC. Time now 2016-May-24 13:50 UTC.
Position N 40°52' E 028°48'.
Warning: this ship's position is 29 days out of date.

Length 70 m; draft 6.6 m.

Type: Ship. MMSI: 677041700.

Date/timePositionNaut miles runAvg speedWind from/ knotsBaromVisibWave heightAir tempDewpointWater temp
2016-Apr-24 22:09N 40°52' E 028°48'  
2016-Apr-19 02:31N 46°25' E 030°55'8 7.8
2016-Apr-19 01:32N 46°33' E 030°58'16 8.1
2016-Apr-18 23:32N 46°35' E 031°21'11 7.8
2016-Apr-18 22:04N 46°35' E 031°38'4 8.4
2016-Apr-18 21:33N 46°36' E 031°44'8 7.8
2016-Apr-18 20:34N 46°38' E 031°54'7 6.7
2016-Apr-18 19:33N 46°45' E 031°54'7 6.8
2016-Apr-18 18:33N 46°51' E 031°57'1 1.0
2016-Apr-18 17:32N 46°51' E 031°59'0 0.0
2016-Apr-18 16:32N 46°51' E 031°59'0 0.0
2016-Apr-18 15:32N 46°51' E 031°59'0 0.0
2016-Apr-18 14:32N 46°51' E 031°59'0 0.0
2016-Apr-18 13:32N 46°51' E 031°59'0 0.0
2016-Apr-18 12:32N 46°51' E 031°59'0 0.0
2016-Apr-18 11:29N 46°51' E 031°59'0 0.0
2016-Apr-18 10:32N 46°51' E 031°59'0 0.0
2016-Apr-18 09:32N 46°51' E 031°59'0 0.0
2016-Apr-18 08:32N 46°51' E 031°59'0 0.0
2016-Apr-18 07:32N 46°51' E 031°59'0 0.0
2016-Apr-18 06:32N 46°51' E 031°59'0 0.0
2016-Apr-18 05:32N 46°51' E 031°59'0 0.0
2016-Apr-18 04:32N 46°51' E 031°59'0 0.0
2016-Apr-18 03:29N 46°51' E 031°59'0 0.0
2016-Apr-18 02:32N 46°51' E 031°59'0 0.0
2016-Apr-18 01:32N 46°51' E 031°59'0 0.0
2016-Apr-18 00:32N 46°51' E 031°59'0 0.0
2016-Apr-17 23:32N 46°51' E 031°59'0 0.0
2016-Apr-17 22:32N 46°51' E 031°59'0 0.0
2016-Apr-17 21:32N 46°51' E 031°59'0 0.0
2016-Apr-17 20:32N 46°51' E 031°59'0 0.0
2016-Apr-17 19:32N 46°51' E 031°59'0 0.0
2016-Apr-17 18:32N 46°51' E 031°59'0 0.0
2016-Apr-17 17:32N 46°51' E 031°59'0 0.0
2016-Apr-17 16:32N 46°51' E 031°59'0 0.0
2016-Apr-17 15:32N 46°51' E 031°59'0 0.0
2016-Apr-17 14:32N 46°51' E 031°59'0 0.0
2016-Apr-17 13:32N 46°51' E 031°59'0 0.0
2016-Apr-17 12:32N 46°51' E 031°59'0 0.0
2016-Apr-17 11:32N 46°51' E 031°59'0 0.0
2016-Apr-17 10:32N 46°51' E 031°59'0 0.0
2016-Apr-17 09:32N 46°51' E 031°59'0 0.0
2016-Apr-17 08:29N 46°51' E 031°59'0 0.0
2016-Apr-17 07:32N 46°51' E 031°59'0 0.0
2016-Apr-17 06:32N 46°51' E 031°59'0 0.0
2016-Apr-17 05:32N 46°51' E 031°59'0 0.0
2016-Apr-17 04:32N 46°51' E 031°59'0 0.0
2016-Apr-17 03:32N 46°51' E 031°59'0 0.0
2016-Apr-17 02:32N 46°51' E 031°59'0 0.0
2016-Apr-17 01:29N 46°51' E 031°59'0 0.0
2016-Apr-17 00:32N 46°51' E 031°59'0 0.0
2016-Apr-16 23:32N 46°51' E 031°59'0 0.0
2016-Apr-16 22:32N 46°51' E 031°59'0 0.0
2016-Apr-16 21:32N 46°51' E 031°59'0 0.0
2016-Apr-16 20:32N 46°51' E 031°59'0 0.0
2016-Apr-16 19:32N 46°51' E 031°59'0 0.0
2016-Apr-16 18:32N 46°51' E 031°59'0 0.0
2016-Apr-16 17:32N 46°51' E 031°59'0 0.0
2016-Apr-16 16:32N 46°51' E 031°59'0 0.0
2016-Apr-16 15:32N 46°51' E 031°59'0 0.0
2016-Apr-16 14:32N 46°51' E 031°59'0 0.0
2016-Apr-16 13:32N 46°51' E 031°59'0 0.0
2016-Apr-16 12:32N 46°51' E 031°59'0 0.0
2016-Apr-16 11:32N 46°51' E 031°59'0 0.0
2016-Apr-16 10:32N 46°51' E 031°59'0 0.0
2016-Apr-16 09:32N 46°51' E 031°59'0 0.0
2016-Apr-16 08:29N 46°51' E 031°59'0 0.0
2016-Apr-16 07:32N 46°51' E 031°59'0 0.0
2016-Apr-16 06:32N 46°51' E 031°59'0 0.0
2016-Apr-16 05:26N 46°51' E 031°59'0 0.0
2016-Apr-16 04:32N 46°51' E 031°59'0 0.0
2016-Apr-16 03:32N 46°51' E 031°59'0 0.0
2016-Apr-16 02:32N 46°51' E 031°59'0 0.0
2016-Apr-16 01:32N 46°51' E 031°59'0 0.0
2016-Apr-16 00:32N 46°51' E 031°59'0 0.0
2016-Apr-15 23:32N 46°51' E 031°59'0 0.0
2016-Apr-15 22:32N 46°51' E 031°59'0 0.0
2016-Apr-15 21:32N 46°51' E 031°59'0 0.0
2016-Apr-15 20:32N 46°51' E 031°59'0 0.0
2016-Apr-15 19:32N 46°51' E 031°59'0 0.0
2016-Apr-15 18:32N 46°51' E 031°59'0 0.0
2016-Apr-15 17:32N 46°51' E 031°59'0 0.0
2016-Apr-15 16:32N 46°51' E 031°59'0 0.0
2016-Apr-15 15:32N 46°51' E 031°59'0 0.0
2016-Apr-15 14:32N 46°51' E 031°59'0 0.0
2016-Apr-15 13:32N 46°51' E 031°59'0 0.0
2016-Apr-15 12:32N 46°51' E 031°59'0 0.0
2016-Apr-15 11:32N 46°51' E 031°59'0 0.0
2016-Apr-15 10:32N 46°51' E 031°59'0 0.0
2016-Apr-15 09:32N 46°51' E 031°59'0 0.0
2016-Apr-15 08:32N 46°51' E 031°59'0 0.0
2016-Apr-15 07:32N 46°51' E 031°59'0 0.0
2016-Apr-15 06:32N 46°51' E 031°59'0 0.0
2016-Apr-15 05:32N 46°51' E 031°59'0 0.0
2016-Apr-15 04:32N 46°51' E 031°59'0 0.0
2016-Apr-15 03:29N 46°51' E 031°59'0 0.0
2016-Apr-15 02:29N 46°51' E 031°59'0 0.0
2016-Apr-15 01:29N 46°51' E 031°59'0 0.0
2016-Apr-15 00:32N 46°51' E 031°59'0 0.0
2016-Apr-14 23:32N 46°51' E 031°59'0 0.0
2016-Apr-14 22:29N 46°51' E 031°59'  

Dump ship's entire track history